Saint Peter, IL (62880)

8:50 PM CST on February 08, 2016 (GMT -0600)
Kinmundy Atmospheric Research Laboratory | | Change Station
CLOSE
Current Station
Personal Weather Station
Location: Kinmundy, IL
Elevation: 570 ft
Nearby Weather Stations

Elev 570 ft 38.78 °N, 88.89 °W | Updated 14 minutes ago

Snow
Snow
20.8 °F
Feels Like 8 °F
N
14.0
Wind Variable Wind from WNW
Gusts 14.0 mph

Today
High -- | Low -- °F
--% Chance of Precip.
Yesterday
High -- | Low -- °F
Precip. -- in
Pressure 29.91 in
Visibility 5.0 miles
Clouds Scattered Clouds 2300 ft
Mostly Cloudy 2800 ft
Overcast 3600 ft
Windchill 8 °F
Dew Point 18 °F
Humidity 87%
Rainfall 0.00 in
Snow Depth Not available.
6:55 AM 5:24 PM
New Moon, 0% visible
METAR KSLO 090235Z AUTO 30015G20KT 5SM -SN SCT023 BKN028 OVC036 M05/M09 A2991 RMK AO2 T10501091
Pressure 29.91 in
Visibility 5.0 miles
Clouds Scattered Clouds 2300 ft
Mostly Cloudy 2800 ft
Overcast 3600 ft
Windchill 8 °F
Dew Point 18 °F
Humidity 87%
Rainfall 0.00 in
Snow Depth Not available.
6:55 AM 5:24 PM
New Moon, 0% visible
METAR KSLO 090235Z AUTO 30015G20KT 5SM -SN SCT023 BKN028 OVC036 M05/M09 A2991 RMK AO2 T10501091

10-Day Weather Forecast

Almanac

Astronomy

Feb. 08, 2016 Rise Set
Actual Time
Civil Twilight
Nautical Twilight
Astronomical Twilight
Moon
Length of Visible Light
Length of Day
Tomorrow will be .
, % of the Moon is Illuminated

Today's Extremes

State Highs State Lows

Community

WunderPhotos

Upload Photos

1,891,527 photos uploaded!

WunderBlog® & News

Nearby

Air Quality

  Air Quality AQ Index Pollutant
Not available.

Snow Depth

Station Depth Elevation

Earthquake Activity

City Distance Mag. Time & Date
Minimum magnitude displayed is 2.5.

Coastal Water Temperatures

Place Temperature

Stations

Nearby Weather Stations

Station Location Temp. Windchill Dew Point Humidity Wind Precip. Elev Updated Type
                   

Watches & Warnings

There are currently no watches in effect.